createdAt,value
2024-02-19T00:00:01.093Z,2.38
2024-02-19T00:02:47.406Z,1.77
2024-02-19T00:05:33.728Z,1.80
2024-02-19T00:08:20.196Z,1.92
2024-02-19T00:11:07.553Z,1.80
2024-02-19T00:13:54.908Z,1.90
2024-02-19T00:16:43.798Z,1.40
2024-02-19T00:19:30.775Z,1.65
2024-02-19T00:22:17.552Z,1.60
2024-02-19T00:25:04.236Z,1.90
2024-02-19T00:27:50.664Z,1.40
2024-02-19T00:30:37.065Z,1.50
2024-02-19T00:33:25.155Z,1.42
2024-02-19T00:36:11.946Z,1.00
2024-02-19T00:38:58.091Z,1.58
2024-02-19T00:41:44.179Z,1.50
2024-02-19T00:44:30.331Z,1.55
2024-02-19T00:47:16.386Z,1.30
2024-02-19T00:50:02.694Z,1.08
2024-02-19T00:52:49.219Z,1.60
2024-02-19T00:55:35.649Z,1.50
2024-02-19T00:58:21.988Z,1.50
2024-02-19T01:01:08.269Z,1.10
2024-02-19T01:03:54.901Z,1.30
2024-02-19T01:06:41.499Z,1.50
2024-02-19T01:09:27.667Z,1.50
2024-02-19T01:12:14.223Z,1.10
2024-02-19T01:15:00.759Z,1.40
2024-02-19T01:17:47.212Z,1.13
2024-02-19T01:20:33.511Z,1.42
2024-02-19T01:23:21.051Z,1.30
2024-02-19T01:26:07.390Z,0.55
2024-02-19T01:28:53.471Z,0.85
2024-02-19T01:31:40.232Z,1.20
2024-02-19T01:34:26.494Z,0.85
2024-02-19T01:37:13.090Z,0.77
2024-02-19T01:39:59.675Z,0.90
2024-02-19T01:42:45.861Z,0.75
2024-02-19T01:45:32.473Z,0.60
2024-02-19T01:48:19.286Z,0.70
2024-02-19T01:53:54.295Z,0.63
2024-02-19T01:56:42.138Z,0.73
2024-02-19T01:59:29.946Z,0.55
2024-02-19T02:02:17.924Z,0.68
2024-02-19T02:05:04.230Z,0.63
2024-02-19T02:07:52.167Z,0.28
2024-02-19T02:10:38.601Z,0.68
2024-02-19T02:13:24.878Z,0.40
2024-02-19T02:16:11.415Z,0.50
2024-02-19T02:18:58.434Z,0.13
2024-02-19T02:21:45.757Z,0.50
2024-02-19T02:24:32.531Z,0.20
2024-02-19T02:27:18.986Z,0.20
2024-02-19T02:30:06.251Z,0.30
2024-02-19T02:32:56.679Z,0.10
2024-02-19T02:35:43.500Z,0.50
2024-02-19T02:38:29.932Z,0.15
2024-02-19T02:41:17.627Z,0.10
2024-02-19T02:44:04.127Z,0.20
2024-02-19T02:46:50.627Z,0.00
2024-02-19T02:49:36.784Z,0.25
2024-02-19T02:52:23.017Z,0.20
2024-02-19T02:55:09.369Z,0.00
2024-02-19T02:57:55.606Z,0.00
2024-02-19T03:00:41.631Z,0.22
2024-02-19T03:03:33.996Z,0.38
2024-02-19T03:06:20.446Z,0.05
2024-02-19T03:09:06.702Z,0.08
2024-02-19T03:11:53.253Z,0.17
2024-02-19T03:14:39.484Z,0.47
2024-02-19T03:17:25.655Z,0.22
2024-02-19T03:20:14.565Z,0.20
2024-02-19T03:23:02.093Z,0.30
2024-02-19T03:28:34.468Z,0.20
2024-02-19T03:31:20.885Z,0.30
2024-02-19T03:34:07.090Z,0.25
2024-02-19T03:36:53.533Z,0.30
2024-02-19T03:39:39.665Z,0.30
2024-02-19T03:42:25.808Z,0.20
2024-02-19T03:45:12.055Z,0.20
2024-02-19T03:47:58.312Z,0.03
2024-02-19T03:50:45.029Z,0.47
2024-02-19T03:53:32.231Z,0.22
2024-02-19T03:56:19.004Z,0.30
2024-02-19T03:59:06.187Z,0.40
2024-02-19T04:01:52.350Z,0.05
2024-02-19T04:04:38.437Z,0.10
2024-02-19T04:07:25.549Z,0.22
2024-02-19T04:10:12.175Z,0.45
2024-02-19T04:12:58.480Z,0.10
2024-02-19T04:15:44.808Z,0.28
2024-02-19T04:18:31.288Z,0.32
2024-02-19T04:21:17.337Z,0.40
2024-02-19T04:24:03.793Z,0.77
2024-02-19T04:26:51.071Z,0.32
2024-02-19T04:29:37.641Z,0.57
2024-02-19T04:32:23.908Z,0.75
2024-02-19T04:35:10.612Z,0.38
2024-02-19T04:37:56.728Z,0.30
2024-02-19T04:40:43.138Z,0.40
2024-02-19T04:43:29.345Z,0.45
2024-02-19T04:46:16.176Z,0.43
2024-02-19T04:51:49.812Z,0.60
2024-02-19T04:54:35.850Z,0.30
2024-02-19T04:57:22.349Z,0.65
2024-02-19T05:00:09.313Z,0.47
2024-02-19T05:05:41.723Z,0.50
2024-02-19T05:08:30.515Z,0.55
2024-02-19T05:11:17.186Z,1.00
2024-02-19T05:14:03.975Z,0.47
2024-02-19T05:16:50.228Z,0.75
2024-02-19T05:19:36.801Z,0.98
2024-02-19T05:22:24.779Z,1.00
2024-02-19T05:25:11.392Z,0.50
2024-02-19T05:28:01.298Z,0.63
2024-02-19T05:30:47.978Z,0.80
2024-02-19T05:33:34.509Z,0.68
2024-02-19T05:36:20.681Z,1.00
2024-02-19T05:39:11.948Z,1.05
2024-02-19T05:41:58.632Z,1.38
2024-02-19T05:44:44.932Z,0.70
2024-02-19T05:47:31.148Z,0.95
2024-02-19T05:50:18.351Z,1.10
2024-02-19T05:53:05.227Z,1.17
2024-02-19T05:55:51.669Z,0.80
2024-02-19T05:58:44.029Z,0.90
2024-02-19T06:01:30.505Z,0.98
2024-02-19T06:04:17.397Z,1.00
2024-02-19T06:07:04.147Z,0.88
2024-02-19T06:09:50.761Z,1.00
2024-02-19T06:12:37.124Z,1.00
2024-02-19T06:15:25.727Z,1.00
2024-02-19T06:18:12.154Z,1.70
2024-02-19T06:20:58.521Z,1.13
2024-02-19T06:23:45.138Z,0.70
2024-02-19T06:26:31.151Z,0.90
2024-02-19T06:29:17.501Z,1.40
2024-02-19T06:32:04.176Z,1.00
2024-02-19T06:34:50.764Z,1.17
2024-02-19T06:37:37.062Z,1.20
2024-02-19T06:40:23.669Z,1.30
2024-02-19T06:43:10.693Z,1.15
2024-02-19T06:45:57.729Z,1.40
2024-02-19T06:48:45.741Z,1.00
2024-02-19T06:51:34.017Z,1.08
2024-02-19T06:54:20.340Z,3.67
2024-02-19T06:57:06.599Z,3.78
2024-02-19T06:59:53.955Z,1.27
2024-02-19T07:02:40.597Z,0.73
2024-02-19T07:08:15.012Z,1.02
2024-02-19T07:11:01.216Z,0.70
2024-02-19T07:13:49.269Z,0.50
2024-02-19T07:16:35.663Z,0.65
2024-02-19T07:19:21.734Z,0.52
2024-02-19T07:22:08.443Z,0.68
2024-02-19T07:25:03.053Z,0.90
2024-02-19T07:27:56.909Z,0.77
2024-02-19T07:30:43.345Z,0.75
2024-02-19T07:33:29.463Z,0.80
2024-02-19T07:36:16.670Z,0.60
2024-02-19T07:39:03.171Z,0.90
2024-02-19T07:41:49.243Z,0.60
2024-02-19T07:44:35.478Z,1.08
2024-02-19T07:50:09.138Z,2.92
2024-02-19T07:52:55.253Z,0.82
2024-02-19T07:55:41.541Z,0.95
2024-02-19T07:58:27.934Z,0.90
2024-02-19T08:01:14.033Z,0.80
2024-02-19T08:04:00.265Z,0.80
2024-02-19T08:06:47.318Z,1.20
2024-02-19T08:09:33.584Z,0.93
2024-02-19T08:12:19.751Z,0.90
2024-02-19T08:15:08.078Z,0.68
2024-02-19T08:17:54.322Z,0.80
2024-02-19T08:20:41.847Z,0.75
2024-02-19T08:23:27.812Z,1.05
2024-02-19T08:26:13.953Z,0.98
2024-02-19T08:29:00.859Z,1.08
2024-02-19T08:31:47.141Z,1.10
2024-02-19T08:34:33.423Z,0.73
2024-02-19T08:37:20.169Z,0.77
2024-02-19T08:40:07.116Z,1.50
2024-02-19T08:42:53.560Z,1.15
2024-02-19T08:45:41.630Z,1.70
2024-02-19T08:48:28.221Z,1.40
2024-02-19T08:51:14.443Z,0.90
2024-02-19T08:54:00.822Z,0.80
2024-02-19T08:56:46.969Z,0.88
2024-02-19T08:59:32.983Z,1.05
2024-02-19T09:02:19.193Z,1.38
2024-02-19T09:05:05.887Z,1.20
2024-02-19T09:07:53.125Z,1.38
2024-02-19T09:10:39.605Z,1.30
2024-02-19T09:13:25.816Z,1.20
2024-02-19T09:16:12.267Z,1.42
2024-02-19T09:18:58.997Z,1.30
2024-02-19T09:21:45.764Z,1.30
2024-02-19T09:24:32.967Z,1.10
2024-02-19T09:27:19.550Z,1.00
2024-02-19T09:30:06.547Z,1.10
2024-02-19T09:32:52.992Z,1.20
2024-02-19T09:35:39.146Z,1.05
2024-02-19T09:38:25.938Z,0.90
2024-02-19T09:41:12.363Z,1.20
2024-02-19T09:43:58.648Z,1.08
2024-02-19T09:46:47.068Z,1.10
2024-02-19T09:49:33.945Z,4.28
2024-02-19T09:52:29.525Z,1.33
2024-02-19T09:55:17.392Z,0.88
2024-02-19T09:58:05.163Z,0.50
2024-02-19T10:00:51.670Z,0.80
2024-02-19T10:03:38.181Z,0.60
2024-02-19T10:06:35.513Z,1.02
2024-02-19T10:09:22.594Z,0.82
2024-02-19T10:12:10.061Z,0.88
2024-02-19T10:14:57.380Z,1.08
2024-02-19T10:17:43.822Z,1.02
2024-02-19T10:20:29.890Z,0.73
2024-02-19T10:23:16.290Z,1.27
2024-02-19T10:26:04.165Z,0.80
2024-02-19T10:28:58.341Z,0.75
2024-02-19T10:31:44.771Z,0.93
2024-02-19T10:34:31.040Z,0.75
2024-02-19T10:37:17.288Z,0.98
2024-02-19T10:40:09.490Z,0.98
2024-02-19T10:42:57.596Z,0.55
2024-02-19T10:45:44.768Z,0.93
2024-02-19T10:48:31.893Z,1.35
2024-02-19T10:51:20.475Z,2.10
2024-02-19T10:54:06.651Z,0.98
2024-02-19T10:56:52.949Z,1.08
2024-02-19T10:59:40.144Z,0.85
2024-02-19T11:02:27.653Z,0.90
2024-02-19T11:05:14.844Z,0.85
2024-02-19T11:08:04.187Z,0.80
2024-02-19T11:10:54.113Z,0.93
2024-02-19T11:13:42.271Z,1.25
2024-02-19T11:16:29.721Z,0.90
2024-02-19T11:19:17.087Z,1.10
2024-02-19T11:22:11.437Z,1.00
2024-02-19T11:25:00.853Z,0.82
2024-02-19T11:27:50.687Z,0.57
2024-02-19T11:30:37.247Z,0.88
2024-02-19T11:33:23.605Z,1.25
2024-02-19T11:36:09.908Z,0.95
2024-02-19T11:38:57.011Z,1.08
2024-02-19T11:41:44.964Z,0.68
2024-02-19T11:44:32.369Z,0.82
2024-02-19T11:47:18.575Z,0.70
2024-02-19T11:50:06.570Z,0.75
2024-02-19T11:52:55.220Z,0.80
2024-02-19T11:55:42.911Z,0.60
2024-02-19T11:58:29.933Z,1.17
2024-02-19T12:01:22.843Z,1.10
2024-02-19T12:04:09.538Z,0.68
2024-02-19T12:06:55.922Z,1.08
2024-02-19T12:09:41.990Z,1.20
2024-02-19T12:12:28.340Z,0.70
2024-02-19T12:15:20.476Z,1.20
2024-02-19T12:18:06.981Z,0.95
2024-02-19T12:20:53.461Z,1.08
2024-02-19T12:23:41.851Z,0.55
2024-02-19T12:26:28.536Z,1.30
2024-02-19T12:29:14.962Z,0.70
2024-02-19T12:32:01.033Z,0.77
2024-02-19T12:34:47.930Z,0.80
2024-02-19T12:37:34.112Z,0.90
2024-02-19T12:43:07.610Z,0.90
2024-02-19T12:45:53.748Z,1.10
2024-02-19T12:48:41.646Z,1.30
2024-02-19T12:51:36.752Z,1.00
2024-02-19T12:54:22.870Z,1.00
2024-02-19T12:57:10.957Z,1.10
2024-02-19T12:59:58.438Z,0.98
2024-02-19T13:02:45.793Z,0.63
2024-02-19T13:05:32.307Z,1.00
2024-02-19T13:08:18.747Z,1.10
2024-02-19T13:13:52.723Z,1.35
2024-02-19T13:16:38.843Z,0.95
2024-02-19T13:19:26.589Z,1.10
2024-02-19T13:22:14.111Z,0.93
2024-02-19T13:25:00.930Z,0.98
2024-02-19T13:27:47.053Z,1.05
2024-02-19T13:30:33.410Z,0.98
2024-02-19T13:33:19.737Z,1.80
2024-02-19T13:36:06.513Z,0.90
2024-02-19T13:38:52.935Z,0.73
2024-02-19T13:41:40.057Z,1.02
2024-02-19T13:44:26.436Z,0.68
2024-02-19T13:47:12.771Z,0.90
2024-02-19T13:49:59.231Z,0.75
2024-02-19T13:52:45.707Z,0.77
2024-02-19T13:55:31.785Z,1.02
2024-02-19T13:58:18.351Z,0.73
2024-02-19T14:01:05.920Z,0.57
2024-02-19T14:03:52.803Z,0.80
2024-02-19T14:06:39.195Z,0.50
2024-02-19T14:09:25.282Z,0.65
2024-02-19T14:12:11.568Z,0.75
2024-02-19T14:14:57.693Z,0.57
2024-02-19T14:17:44.128Z,0.65
2024-02-19T14:20:30.172Z,0.77
2024-02-19T14:23:16.105Z,0.70
2024-02-19T14:26:02.318Z,0.98
2024-02-19T14:28:48.319Z,1.17
2024-02-19T14:31:34.632Z,0.70
2024-02-19T14:34:22.966Z,0.90
2024-02-19T14:37:11.109Z,1.00
2024-02-19T14:39:57.789Z,1.10
2024-02-19T14:42:51.054Z,0.68
2024-02-19T14:45:37.264Z,0.52
2024-02-19T14:48:23.782Z,1.25
2024-02-19T14:51:12.228Z,0.98
2024-02-19T14:53:58.918Z,0.80
2024-02-19T14:56:45.129Z,1.00
2024-02-19T14:59:31.238Z,0.70
2024-02-19T15:02:18.499Z,0.82
2024-02-19T15:05:06.099Z,1.02
2024-02-19T15:07:56.046Z,0.85
2024-02-19T15:10:43.609Z,0.68
2024-02-19T15:13:30.021Z,0.93
2024-02-19T15:16:16.299Z,0.82
2024-02-19T15:19:02.458Z,1.00
2024-02-19T15:21:48.931Z,0.70
2024-02-19T15:24:34.962Z,0.77
2024-02-19T15:27:27.052Z,0.68
2024-02-19T15:30:14.233Z,1.00
2024-02-19T15:33:01.015Z,0.90
2024-02-19T15:35:48.694Z,0.43
2024-02-19T15:38:35.002Z,0.73
2024-02-19T15:41:24.256Z,1.10
2024-02-19T15:44:10.769Z,0.95
2024-02-19T15:46:56.698Z,0.77
2024-02-19T15:49:42.868Z,1.08
2024-02-19T15:52:30.540Z,0.88
2024-02-19T15:55:16.687Z,0.75
2024-02-19T15:58:03.251Z,0.80
2024-02-19T16:00:50.033Z,0.65
2024-02-19T16:03:37.434Z,1.23
2024-02-19T16:06:29.141Z,1.17
2024-02-19T16:09:15.535Z,1.02
2024-02-19T16:12:02.414Z,1.27
2024-02-19T16:14:48.946Z,0.80
2024-02-19T16:17:35.371Z,0.73
2024-02-19T16:20:22.129Z,0.85
2024-02-19T16:23:08.601Z,1.13
2024-02-19T16:25:55.288Z,1.10
2024-02-19T16:28:44.370Z,1.00
2024-02-19T16:31:32.895Z,1.10
2024-02-19T16:34:20.516Z,1.10
2024-02-19T16:37:07.314Z,1.25
2024-02-19T16:39:53.831Z,1.00
2024-02-19T16:42:40.283Z,1.30
2024-02-19T16:45:34.437Z,1.17
2024-02-19T16:48:21.429Z,1.08
2024-02-19T16:51:11.513Z,1.13
2024-02-19T16:53:58.498Z,1.10
2024-02-19T16:56:45.032Z,1.00
2024-02-19T16:59:31.310Z,1.10
2024-02-19T17:02:18.048Z,0.85
2024-02-19T17:05:04.678Z,0.90
2024-02-19T17:07:51.076Z,1.00
2024-02-19T17:10:37.606Z,1.15
2024-02-19T17:13:24.701Z,1.00
2024-02-19T17:16:11.010Z,1.00
2024-02-19T17:18:58.545Z,0.93
2024-02-19T17:21:45.136Z,0.95
2024-02-19T17:24:33.587Z,1.20
2024-02-19T17:27:19.980Z,1.40
2024-02-19T17:30:07.573Z,1.20
2024-02-19T17:32:54.194Z,1.25
2024-02-19T17:35:43.343Z,1.35
2024-02-19T17:38:31.648Z,1.40
2024-02-19T17:41:17.889Z,1.40
2024-02-19T17:44:04.667Z,1.33
2024-02-19T17:46:52.889Z,1.65
2024-02-19T17:49:40.126Z,1.67
2024-02-19T17:52:26.351Z,1.27
2024-02-19T17:55:12.645Z,1.38
2024-02-19T17:57:59.673Z,1.73
2024-02-19T18:00:46.339Z,1.38
2024-02-19T18:06:18.953Z,1.50
2024-02-19T18:09:05.507Z,2.50
2024-02-19T18:11:51.784Z,1.50
2024-02-19T18:14:38.043Z,1.65
2024-02-19T18:17:24.226Z,1.80
2024-02-19T18:20:11.367Z,1.70
2024-02-19T18:22:59.435Z,2.22
2024-02-19T18:25:45.963Z,1.58
2024-02-19T18:28:35.955Z,1.80
2024-02-19T18:31:22.604Z,2.10
2024-02-19T18:34:09.422Z,1.30
2024-02-19T18:36:59.679Z,1.55
2024-02-19T18:39:46.298Z,2.03
2024-02-19T18:42:32.371Z,1.80
2024-02-19T18:45:18.956Z,1.83
2024-02-19T18:48:05.620Z,1.52
2024-02-19T18:50:52.620Z,1.60
2024-02-19T18:53:39.461Z,2.22
2024-02-19T18:56:25.960Z,1.95
2024-02-19T18:59:12.343Z,1.70
2024-02-19T19:01:59.062Z,2.20
2024-02-19T19:04:46.513Z,1.70
2024-02-19T19:07:33.667Z,1.67
2024-02-19T19:10:20.055Z,2.00
2024-02-19T19:13:07.057Z,1.83
2024-02-19T19:15:54.686Z,1.90
2024-02-19T19:18:41.199Z,1.92
2024-02-19T19:21:27.476Z,1.92
2024-02-19T19:24:13.913Z,1.60
2024-02-19T19:27:02.430Z,1.70
2024-02-19T19:29:49.564Z,2.25
2024-02-19T19:32:36.735Z,2.30
2024-02-19T19:35:24.915Z,2.05
2024-02-19T19:38:11.789Z,1.83
2024-02-19T19:40:58.339Z,1.75
2024-02-19T19:43:44.711Z,1.80
2024-02-19T19:46:31.392Z,1.75
2024-02-19T19:49:20.692Z,1.80
2024-02-19T19:52:09.385Z,1.90
2024-02-19T19:54:57.779Z,1.60
2024-02-19T19:57:51.818Z,2.08
2024-02-19T20:00:38.388Z,1.73
2024-02-19T20:03:24.807Z,1.83
2024-02-19T20:06:12.101Z,1.63
2024-02-19T20:08:59.326Z,1.58
2024-02-19T20:11:45.911Z,1.50
2024-02-19T20:14:32.192Z,1.50
2024-02-19T20:17:21.094Z,1.33
2024-02-19T20:20:09.585Z,1.70
2024-02-19T20:22:55.988Z,1.50
2024-02-19T20:25:42.074Z,1.60
2024-02-19T20:28:28.516Z,1.60
2024-02-19T20:31:15.042Z,1.40
2024-02-19T20:34:02.017Z,1.55
2024-02-19T20:36:48.437Z,1.50
2024-02-19T20:39:34.859Z,1.70
2024-02-19T20:42:21.367Z,1.83
2024-02-19T20:45:13.715Z,2.10
2024-02-19T20:50:46.731Z,1.80
2024-02-19T20:53:33.271Z,1.77
2024-02-19T20:56:20.114Z,1.80
2024-02-19T20:59:06.612Z,1.83
2024-02-19T21:01:53.460Z,1.83
2024-02-19T21:04:39.798Z,1.80
2024-02-19T21:07:26.394Z,1.95
2024-02-19T21:10:14.252Z,1.65
2024-02-19T21:13:01.044Z,1.95
2024-02-19T21:15:47.443Z,2.20
2024-02-19T21:18:42.226Z,2.10
2024-02-19T21:21:35.245Z,2.30
2024-02-19T21:24:21.919Z,1.92
2024-02-19T21:27:08.310Z,2.05
2024-02-19T21:29:55.098Z,1.98
2024-02-19T21:32:41.274Z,2.17
2024-02-19T21:35:27.737Z,2.13
2024-02-19T21:38:13.695Z,2.85
2024-02-19T21:41:01.675Z,1.70
2024-02-19T21:43:48.176Z,1.88
2024-02-19T21:46:37.601Z,2.05
2024-02-19T21:49:24.601Z,2.03
2024-02-19T21:52:11.014Z,1.77
2024-02-19T21:54:57.240Z,2.15
2024-02-19T21:57:43.525Z,2.17
2024-02-19T22:00:30.004Z,1.80
2024-02-19T22:03:16.813Z,2.15
2024-02-19T22:06:05.169Z,2.20
2024-02-19T22:08:52.483Z,2.15
2024-02-19T22:11:38.982Z,2.40
2024-02-19T22:14:25.348Z,2.05
2024-02-19T22:17:11.435Z,2.20
2024-02-19T22:19:57.906Z,1.98
2024-02-19T22:22:44.820Z,2.13
2024-02-19T22:25:32.255Z,1.90
2024-02-19T22:28:18.992Z,2.05
2024-02-19T22:31:07.081Z,2.08
2024-02-19T22:33:53.654Z,1.80
2024-02-19T22:36:39.841Z,1.90
2024-02-19T22:39:26.218Z,1.90
2024-02-19T22:42:13.281Z,2.13
2024-02-19T22:45:00.888Z,1.67
2024-02-19T22:47:47.158Z,1.80
2024-02-19T22:50:35.615Z,1.60
2024-02-19T22:53:22.053Z,1.88
2024-02-19T22:56:08.822Z,1.90
2024-02-19T22:59:03.357Z,1.45
2024-02-19T23:01:57.357Z,1.88
2024-02-19T23:04:44.440Z,1.75
2024-02-19T23:07:30.901Z,1.35
2024-02-19T23:10:17.165Z,2.13
2024-02-19T23:13:03.487Z,1.80
2024-02-19T23:15:49.758Z,1.80
2024-02-19T23:18:35.990Z,1.70
2024-02-19T23:21:21.986Z,1.80
2024-02-19T23:24:08.265Z,1.73
2024-02-19T23:26:54.661Z,1.58
2024-02-19T23:29:40.739Z,1.92
2024-02-19T23:32:26.765Z,1.33
2024-02-19T23:35:13.015Z,1.58
2024-02-19T23:37:59.173Z,1.70
2024-02-19T23:40:48.029Z,1.80
2024-02-19T23:43:34.564Z,1.30
2024-02-19T23:46:21.067Z,1.20
2024-02-19T23:49:08.017Z,1.80
2024-02-19T23:51:55.131Z,1.20
2024-02-19T23:54:41.701Z,1.15
2024-02-19T23:57:28.340Z,1.77
